Alexandria, Alexandria International Airport (Egypt) (HEAX)

NameAlexandria International Airport (Egypt)
CityAlexandria
CountryEgypt
ICAOHEAX
IATAALY
Altitude-2 m
CoordinatesGoogle Map
Live Air TrafficLiveATC.net
METARHEAX 150300Z 20004KT 6000 SCT020 09/08 Q1014 NOSIG
2019-03-15 03:00:00 Wind: South (200°) 2.06 m/s - Visibility: 6000 m - Temperature: 9 °C - Dew point: 8 °C - Humidity: 93.5% - Pressure: 1014 hPa
Statistics

The table below shows the detailed information of all flights to/from Alexandria, Alexandria International Airport (Egypt) (HEAX).